createdAt,value
2023-02-09T00:02:19.330Z,100.00
2023-02-09T00:04:47.709Z,100.00
2023-02-09T00:07:16.017Z,100.00
2023-02-09T00:09:45.383Z,100.00
2023-02-09T00:12:31.067Z,100.00
2023-02-09T00:14:59.393Z,100.00
2023-02-09T00:17:29.346Z,100.00
2023-02-09T00:19:57.620Z,100.00
2023-02-09T00:22:25.908Z,100.00
2023-02-09T00:24:56.438Z,100.00
2023-02-09T00:27:25.748Z,100.00
2023-02-09T00:29:54.134Z,100.00
2023-02-09T00:32:22.417Z,100.00
2023-02-09T00:34:52.135Z,100.00
2023-02-09T00:37:20.445Z,100.00
2023-02-09T00:39:48.936Z,100.00
2023-02-09T00:42:17.347Z,100.00
2023-02-09T00:44:45.964Z,100.00
2023-02-09T00:47:14.287Z,100.00
2023-02-09T00:49:42.700Z,100.00
2023-02-09T00:52:12.553Z,100.00
2023-02-09T00:54:41.695Z,100.00
2023-02-09T00:57:10.050Z,100.00
2023-02-09T00:59:40.698Z,100.00
2023-02-09T01:02:10.463Z,100.00
2023-02-09T01:04:40.363Z,100.00
2023-02-09T01:07:08.791Z,100.00
2023-02-09T01:09:39.166Z,100.00
2023-02-09T01:12:08.818Z,100.00
2023-02-09T01:14:39.764Z,100.00
2023-02-09T01:17:08.254Z,100.00
2023-02-09T01:19:36.960Z,100.00
2023-02-09T01:22:05.984Z,100.00
2023-02-09T01:24:34.302Z,100.00
2023-02-09T01:27:04.011Z,100.00
2023-02-09T01:29:32.937Z,100.00
2023-02-09T01:32:01.382Z,100.00
2023-02-09T01:34:29.897Z,100.00
2023-02-09T01:36:58.485Z,100.00
2023-02-09T01:39:26.749Z,100.00
2023-02-09T01:41:55.770Z,100.00
2023-02-09T01:45:06.535Z,100.00
2023-02-09T01:47:42.069Z,100.00
2023-02-09T01:50:11.182Z,100.00
2023-02-09T01:52:40.622Z,100.00
2023-02-09T01:55:13.787Z,100.00
2023-02-09T01:57:46.025Z,100.00
2023-02-09T02:00:19.000Z,100.00
2023-02-09T02:02:51.815Z,100.00
2023-02-09T02:05:20.978Z,100.00
2023-02-09T02:07:57.145Z,100.00
2023-02-09T02:10:26.225Z,100.00
2023-02-09T02:12:55.481Z,100.00
2023-02-09T02:15:29.717Z,100.00
2023-02-09T02:18:19.537Z,100.00
2023-02-09T02:21:17.361Z,100.00
2023-02-09T02:23:59.401Z,100.00
2023-02-09T02:26:46.463Z,100.00
2023-02-09T02:29:55.096Z,100.00
2023-02-09T02:32:38.572Z,100.00
2023-02-09T02:35:14.218Z,100.00
2023-02-09T02:37:54.529Z,100.00
2023-02-09T02:40:34.473Z,100.00
2023-02-09T02:43:12.420Z,100.00
2023-02-09T02:45:46.716Z,100.00
2023-02-09T02:48:25.073Z,100.00
2023-02-09T02:50:58.571Z,100.00
2023-02-09T02:53:31.108Z,100.00
2023-02-09T02:56:06.550Z,100.00
2023-02-09T02:58:37.676Z,100.00
2023-02-09T03:01:11.216Z,100.00
2023-02-09T03:03:42.953Z,100.00
2023-02-09T03:06:12.678Z,100.00
2023-02-09T03:08:48.886Z,100.00
2023-02-09T03:11:19.578Z,100.00
2023-02-09T03:14:01.824Z,100.00
2023-02-09T03:20:40.392Z,100.00
2023-02-09T03:23:16.828Z,100.00
2023-02-09T03:25:49.533Z,100.00
2023-02-09T03:28:21.100Z,100.00
2023-02-09T03:30:50.913Z,100.00
2023-02-09T03:33:21.520Z,100.00
2023-02-09T03:35:54.474Z,100.00
2023-02-09T03:38:22.951Z,100.00
2023-02-09T03:40:51.235Z,100.00
2023-02-09T03:43:19.879Z,100.00
2023-02-09T03:45:48.219Z,100.00
2023-02-09T03:48:16.524Z,100.00
2023-02-09T03:50:47.194Z,100.00
2023-02-09T03:53:17.089Z,100.00
2023-02-09T03:55:47.174Z,100.00
2023-02-09T03:58:15.576Z,100.00
2023-02-09T04:00:44.260Z,100.00
2023-02-09T04:03:15.096Z,100.00
2023-02-09T04:05:45.683Z,100.00
2023-02-09T04:08:13.953Z,100.00
2023-02-09T04:10:43.823Z,100.00
2023-02-09T04:13:12.137Z,100.00
2023-02-09T04:15:40.456Z,100.00
2023-02-09T04:18:08.836Z,100.00
2023-02-09T04:20:37.117Z,100.00
2023-02-09T04:23:05.417Z,100.00
2023-02-09T04:25:33.738Z,100.00
2023-02-09T04:28:03.582Z,100.00
2023-02-09T04:30:32.024Z,100.00
2023-02-09T04:33:00.402Z,100.00
2023-02-09T04:35:28.724Z,100.00
2023-02-09T04:37:57.088Z,100.00
2023-02-09T04:40:25.378Z,100.00
2023-02-09T04:42:55.888Z,100.00
2023-02-09T04:45:25.514Z,100.00
2023-02-09T04:47:53.878Z,100.00
2023-02-09T04:50:22.185Z,100.00
2023-02-09T04:52:50.485Z,100.00
2023-02-09T04:55:18.889Z,100.00
2023-02-09T04:58:04.781Z,100.00
2023-02-09T05:00:34.486Z,100.00
2023-02-09T05:03:02.933Z,100.00
2023-02-09T05:05:31.315Z,100.00
2023-02-09T05:08:00.002Z,100.00
2023-02-09T05:10:30.572Z,100.00
2023-02-09T05:12:58.901Z,100.00
2023-02-09T05:15:27.232Z,100.00
2023-02-09T05:17:57.043Z,100.00
2023-02-09T05:20:25.289Z,100.00
2023-02-09T05:22:53.692Z,100.00
2023-02-09T05:25:21.958Z,100.00
2023-02-09T05:27:50.370Z,100.00
2023-02-09T05:30:19.270Z,100.00
2023-02-09T05:32:47.626Z,100.00
2023-02-09T05:35:17.326Z,100.00
2023-02-09T05:37:45.661Z,100.00
2023-02-09T05:40:14.148Z,100.00
2023-02-09T05:42:42.801Z,100.00
2023-02-09T05:45:11.898Z,100.00
2023-02-09T05:47:40.262Z,100.00
2023-02-09T05:50:08.959Z,100.00
2023-02-09T05:52:38.723Z,100.00
2023-02-09T05:55:07.688Z,100.00
2023-02-09T05:57:35.934Z,100.00
2023-02-09T06:00:06.545Z,100.00
2023-02-09T06:02:40.159Z,100.00
2023-02-09T06:05:09.020Z,100.00
2023-02-09T06:07:38.665Z,100.00
2023-02-09T06:10:07.506Z,100.00
2023-02-09T06:12:35.800Z,100.00
2023-02-09T06:15:04.211Z,100.00
2023-02-09T06:17:34.771Z,100.00
2023-02-09T06:20:03.448Z,100.00
2023-02-09T06:22:31.747Z,100.00
2023-02-09T06:25:01.576Z,100.00
2023-02-09T06:27:29.904Z,100.00
2023-02-09T06:29:58.247Z,100.00
2023-02-09T06:32:26.562Z,100.00
2023-02-09T06:34:54.786Z,100.00
2023-02-09T06:37:25.611Z,100.00
2023-02-09T06:39:56.513Z,100.00
2023-02-09T06:42:43.508Z,100.00
2023-02-09T06:45:12.211Z,100.00
2023-02-09T06:47:42.543Z,100.00
2023-02-09T06:50:14.402Z,100.00
2023-02-09T06:52:43.091Z,100.00
2023-02-09T06:55:12.257Z,100.00
2023-02-09T06:57:42.319Z,100.00
2023-02-09T07:00:12.900Z,100.00
2023-02-09T07:02:42.961Z,100.00
2023-02-09T07:05:14.875Z,100.00
2023-02-09T07:07:43.848Z,100.00
2023-02-09T07:10:16.337Z,100.00
2023-02-09T07:12:46.397Z,100.00
2023-02-09T07:15:15.842Z,100.00
2023-02-09T07:17:44.276Z,100.00
2023-02-09T07:20:13.355Z,100.00
2023-02-09T07:22:42.061Z,100.00
2023-02-09T07:25:10.471Z,100.00
2023-02-09T07:27:38.998Z,100.00
2023-02-09T07:30:10.219Z,100.00
2023-02-09T07:32:38.670Z,100.00
2023-02-09T07:35:07.439Z,100.00
2023-02-09T07:37:36.298Z,100.00
2023-02-09T07:40:04.796Z,100.00
2023-02-09T07:42:33.173Z,100.00
2023-02-09T07:45:06.017Z,100.00
2023-02-09T07:47:38.578Z,100.00
2023-02-09T07:50:07.137Z,100.00
2023-02-09T07:52:35.415Z,100.00
2023-02-09T07:55:03.861Z,100.00
2023-02-09T07:57:32.875Z,100.00
2023-02-09T08:00:01.186Z,100.00
2023-02-09T08:02:35.019Z,100.00
2023-02-09T08:05:09.059Z,100.00
2023-02-09T08:07:37.902Z,100.00
2023-02-09T08:10:06.848Z,100.00
2023-02-09T08:12:53.202Z,100.00
2023-02-09T08:15:23.998Z,100.00
2023-02-09T08:17:55.359Z,100.00
2023-02-09T08:20:28.589Z,100.00
2023-02-09T08:23:03.014Z,100.00
2023-02-09T08:25:31.296Z,100.00
2023-02-09T08:27:59.719Z,100.00
2023-02-09T08:30:28.199Z,100.00
2023-02-09T08:32:56.532Z,100.00
2023-02-09T08:35:26.259Z,100.00
2023-02-09T08:37:54.618Z,100.00
2023-02-09T08:40:22.947Z,100.00
2023-02-09T08:42:51.239Z,100.00
2023-02-09T08:45:19.827Z,100.00
2023-02-09T08:47:48.167Z,100.00
2023-02-09T08:50:16.871Z,100.00
2023-02-09T08:52:46.557Z,100.00
2023-02-09T08:55:15.721Z,100.00
2023-02-09T08:57:44.825Z,100.00
2023-02-09T09:00:16.613Z,100.00
2023-02-09T09:02:44.922Z,100.00
2023-02-09T09:05:13.205Z,100.00
2023-02-09T09:07:41.741Z,100.00
2023-02-09T09:10:12.451Z,100.00
2023-02-09T09:12:40.864Z,100.00
2023-02-09T09:15:09.993Z,100.00
2023-02-09T09:17:38.327Z,100.00
2023-02-09T09:20:07.534Z,100.00
2023-02-09T09:22:35.845Z,100.00
2023-02-09T09:25:04.368Z,100.00
2023-02-09T09:27:34.962Z,100.00
2023-02-09T09:30:07.111Z,100.00
2023-02-09T09:32:35.579Z,100.00
2023-02-09T09:35:04.036Z,100.00
2023-02-09T09:37:34.589Z,100.00
2023-02-09T09:40:03.044Z,100.00
2023-02-09T09:42:37.196Z,100.00
2023-02-09T09:45:08.011Z,100.00
2023-02-09T09:47:39.390Z,100.00
2023-02-09T09:50:14.952Z,100.00
2023-02-09T09:52:47.460Z,100.00
2023-02-09T09:55:24.382Z,100.00
2023-02-09T09:57:57.069Z,100.00
2023-02-09T10:00:27.491Z,100.00
2023-02-09T10:02:55.983Z,100.00
2023-02-09T10:05:26.929Z,100.00
2023-02-09T10:08:01.270Z,100.00
2023-02-09T10:10:39.222Z,100.00
2023-02-09T10:13:19.356Z,100.00
2023-02-09T10:15:49.428Z,100.00
2023-02-09T10:18:21.137Z,100.00
2023-02-09T10:20:51.994Z,100.00
2023-02-09T10:23:25.297Z,100.00
2023-02-09T10:26:01.730Z,100.00
2023-02-09T10:28:34.144Z,100.00
2023-02-09T10:31:10.973Z,100.00
2023-02-09T10:33:43.917Z,100.00
2023-02-09T10:36:26.056Z,100.00
2023-02-09T10:39:03.249Z,100.00
2023-02-09T10:41:35.222Z,100.00
2023-02-09T10:44:10.162Z,100.00
2023-02-09T10:46:39.183Z,100.00
2023-02-09T10:49:28.815Z,100.00
2023-02-09T10:52:07.784Z,100.00
2023-02-09T10:54:36.059Z,100.00
2023-02-09T10:57:22.074Z,100.00
2023-02-09T10:59:56.868Z,100.00
2023-02-09T11:02:36.965Z,100.00
2023-02-09T11:05:27.260Z,100.00
2023-02-09T11:08:02.406Z,100.00
2023-02-09T11:10:34.968Z,100.00
2023-02-09T11:13:03.466Z,100.00
2023-02-09T11:15:39.611Z,100.00
2023-02-09T11:18:15.870Z,100.00
2023-02-09T11:20:51.954Z,100.00
2023-02-09T11:23:38.541Z,100.00
2023-02-09T11:26:14.426Z,100.00
2023-02-09T11:28:52.633Z,100.00
2023-02-09T11:31:53.757Z,100.00
2023-02-09T11:34:54.156Z,100.00
2023-02-09T11:37:37.255Z,100.00
2023-02-09T11:40:20.664Z,100.00
2023-02-09T11:42:54.777Z,100.00
2023-02-09T11:45:30.665Z,100.00
2023-02-09T11:48:05.640Z,100.00
2023-02-09T11:50:41.702Z,100.00
2023-02-09T11:53:21.314Z,100.00
2023-02-09T11:55:54.683Z,100.00
2023-02-09T11:58:33.799Z,100.00
2023-02-09T12:01:15.961Z,100.00
2023-02-09T12:03:56.433Z,100.00
2023-02-09T12:06:26.632Z,100.00
2023-02-09T12:09:08.669Z,100.00
2023-02-09T12:12:03.489Z,100.00
2023-02-09T12:14:49.176Z,100.00
2023-02-09T12:17:22.542Z,100.00
2023-02-09T12:19:57.364Z,100.00
2023-02-09T12:23:16.727Z,100.00
2023-02-09T12:25:55.194Z,100.00
2023-02-09T12:28:43.516Z,100.00
2023-02-09T12:31:22.711Z,100.00
2023-02-09T12:34:28.435Z,100.00
2023-02-09T12:37:27.259Z,100.00
2023-02-09T12:40:37.394Z,100.00
2023-02-09T12:43:28.470Z,100.00
2023-02-09T12:46:20.108Z,100.00
2023-02-09T12:48:54.231Z,100.00
2023-02-09T12:51:57.791Z,100.00
2023-02-09T12:54:35.799Z,100.00
2023-02-09T12:57:53.561Z,100.00
2023-02-09T13:00:44.529Z,100.00
2023-02-09T13:03:18.678Z,100.00
2023-02-09T13:05:49.211Z,100.00
2023-02-09T13:08:25.244Z,100.00
2023-02-09T13:11:00.718Z,100.00
2023-02-09T13:13:36.184Z,100.00
2023-02-09T13:16:33.610Z,100.00
2023-02-09T13:19:14.598Z,100.00
2023-02-09T13:21:54.025Z,100.00
2023-02-09T13:24:32.045Z,100.00
2023-02-09T13:27:01.026Z,100.00
2023-02-09T13:29:31.514Z,100.00
2023-02-09T13:32:17.708Z,100.00
2023-02-09T13:34:53.074Z,100.00
2023-02-09T13:37:28.164Z,100.00
2023-02-09T13:40:00.798Z,100.00
2023-02-09T13:42:32.133Z,100.00
2023-02-09T13:45:00.807Z,100.00
2023-02-09T13:47:30.579Z,100.00
2023-02-09T13:50:01.180Z,100.00
2023-02-09T13:52:36.360Z,100.00
2023-02-09T13:55:13.076Z,99.40
2023-02-09T13:57:43.877Z,100.00
2023-02-09T14:00:22.226Z,100.00
2023-02-09T14:02:55.074Z,100.00
2023-02-09T14:05:31.673Z,100.00
2023-02-09T14:08:00.763Z,100.00
2023-02-09T14:10:30.599Z,100.00
2023-02-09T14:13:03.466Z,100.00
2023-02-09T14:15:56.418Z,100.00
2023-02-09T14:18:35.041Z,100.00
2023-02-09T14:21:14.656Z,100.00
2023-02-09T14:23:44.606Z,100.00
2023-02-09T14:26:23.876Z,93.74
2023-02-09T14:28:55.504Z,100.00
2023-02-09T14:31:25.722Z,100.00
2023-02-09T14:33:57.816Z,100.00
2023-02-09T14:36:32.348Z,99.89
2023-02-09T14:39:20.951Z,89.36
2023-02-09T14:42:15.028Z,92.76
2023-02-09T14:44:47.868Z,93.47
2023-02-09T14:47:31.358Z,84.37
2023-02-09T14:50:01.770Z,86.98
2023-02-09T14:52:33.089Z,87.26
2023-02-09T14:55:06.698Z,100.00
2023-02-09T14:57:37.076Z,100.00
2023-02-09T15:00:17.834Z,100.00
2023-02-09T15:02:47.181Z,100.00
2023-02-09T15:05:17.152Z,100.00
2023-02-09T15:07:48.026Z,100.00
2023-02-09T15:10:24.734Z,98.43
2023-02-09T15:12:55.973Z,96.59
2023-02-09T15:15:25.659Z,100.00
2023-02-09T15:17:55.224Z,99.73
2023-02-09T15:20:25.560Z,100.00
2023-02-09T15:22:55.061Z,100.00
2023-02-09T15:25:24.624Z,98.97
2023-02-09T15:27:54.582Z,97.30
2023-02-09T15:30:25.464Z,94.07
2023-02-09T15:32:54.620Z,93.73
2023-02-09T15:35:26.321Z,91.33
2023-02-09T15:37:59.472Z,100.00
2023-02-09T15:40:49.388Z,100.00
2023-02-09T15:43:36.947Z,100.00
2023-02-09T15:46:23.626Z,100.00
2023-02-09T15:48:52.204Z,100.00
2023-02-09T15:51:22.969Z,100.00
2023-02-09T15:53:52.319Z,100.00
2023-02-09T15:56:20.816Z,100.00
2023-02-09T15:58:51.590Z,100.00
2023-02-09T16:01:20.374Z,100.00
2023-02-09T16:03:49.100Z,100.00
2023-02-09T16:06:21.361Z,100.00
2023-02-09T16:08:54.307Z,100.00
2023-02-09T16:11:27.170Z,100.00
2023-02-09T16:13:56.194Z,100.00
2023-02-09T16:16:28.041Z,100.00
2023-02-09T16:18:56.415Z,100.00
2023-02-09T16:21:27.320Z,100.00
2023-02-09T16:23:58.679Z,100.00
2023-02-09T16:26:28.840Z,100.00
2023-02-09T16:28:58.028Z,100.00
2023-02-09T16:31:26.763Z,100.00
2023-02-09T16:33:55.160Z,100.00
2023-02-09T16:36:25.932Z,100.00
2023-02-09T16:38:54.244Z,100.00
2023-02-09T16:41:41.289Z,100.00
2023-02-09T16:44:17.080Z,100.00
2023-02-09T16:46:46.927Z,100.00
2023-02-09T16:49:33.156Z,100.00
2023-02-09T16:52:05.647Z,100.00
2023-02-09T16:54:42.423Z,100.00
2023-02-09T16:57:17.998Z,100.00
2023-02-09T16:59:46.598Z,100.00
2023-02-09T17:02:38.021Z,100.00
2023-02-09T17:05:17.963Z,100.00
2023-02-09T17:07:54.412Z,100.00
2023-02-09T17:10:26.118Z,100.00
2023-02-09T17:12:55.818Z,100.00
2023-02-09T17:15:30.972Z,100.00
2023-02-09T17:18:02.829Z,100.00
2023-02-09T17:20:38.157Z,100.00
2023-02-09T17:23:06.609Z,100.00
2023-02-09T17:25:34.901Z,100.00
2023-02-09T17:28:05.580Z,100.00
2023-02-09T17:30:34.616Z,100.00
2023-02-09T17:33:06.145Z,100.00
2023-02-09T17:36:10.064Z,100.00
2023-02-09T17:38:29.906Z,100.00
2023-02-09T17:41:00.249Z,100.00
2023-02-09T17:43:32.264Z,100.00
2023-02-09T17:46:00.697Z,100.00
2023-02-09T17:48:30.130Z,100.00
2023-02-09T17:51:00.235Z,100.00
2023-02-09T17:53:33.130Z,100.00
2023-02-09T17:56:02.507Z,100.00
2023-02-09T17:58:32.336Z,100.00
2023-02-09T18:01:00.751Z,100.00
2023-02-09T18:03:29.193Z,100.00
2023-02-09T18:06:01.535Z,100.00
2023-02-09T18:08:31.101Z,100.00
2023-02-09T18:10:59.541Z,100.00
2023-02-09T18:13:28.002Z,100.00
2023-02-09T18:15:57.675Z,100.00
2023-02-09T18:18:26.048Z,100.00
2023-02-09T18:20:56.401Z,100.00
2023-02-09T18:23:25.215Z,100.00
2023-02-09T18:25:53.691Z,100.00
2023-02-09T18:28:22.116Z,100.00
2023-02-09T18:30:50.710Z,100.00
2023-02-09T18:33:20.379Z,100.00
2023-02-09T18:35:50.808Z,100.00
2023-02-09T18:38:19.192Z,100.00
2023-02-09T18:40:47.565Z,100.00
2023-02-09T18:43:16.132Z,100.00
2023-02-09T18:45:45.239Z,100.00
2023-02-09T18:48:13.944Z,100.00
2023-02-09T18:50:43.672Z,100.00
2023-02-09T18:53:13.161Z,100.00
2023-02-09T18:55:41.876Z,100.00
2023-02-09T18:58:10.293Z,100.00
2023-02-09T19:00:40.915Z,100.00
2023-02-09T19:03:09.196Z,100.00
2023-02-09T19:05:37.514Z,100.00
2023-02-09T19:08:08.126Z,100.00
2023-02-09T19:10:36.630Z,100.00
2023-02-09T19:13:07.388Z,100.00
2023-02-09T19:15:39.656Z,100.00
2023-02-09T19:18:08.377Z,100.00
2023-02-09T19:20:39.737Z,100.00
2023-02-09T19:23:09.506Z,100.00
2023-02-09T19:25:38.488Z,100.00
2023-02-09T19:28:06.932Z,100.00
2023-02-09T19:30:35.242Z,100.00
2023-02-09T19:33:03.544Z,100.00
2023-02-09T19:35:31.986Z,100.00
2023-02-09T19:38:00.610Z,100.00
2023-02-09T19:40:36.118Z,100.00
2023-02-09T19:43:05.905Z,100.00
2023-02-09T19:45:37.452Z,100.00
2023-02-09T19:48:07.182Z,100.00
2023-02-09T19:50:36.906Z,100.00
2023-02-09T19:53:06.253Z,100.00
2023-02-09T19:55:36.155Z,100.00
2023-02-09T19:58:04.595Z,100.00
2023-02-09T20:00:33.461Z,100.00
2023-02-09T20:03:01.913Z,100.00
2023-02-09T20:05:30.330Z,100.00
2023-02-09T20:07:58.686Z,100.00
2023-02-09T20:10:29.312Z,100.00
2023-02-09T20:12:58.955Z,100.00
2023-02-09T20:15:27.389Z,100.00
2023-02-09T20:17:55.856Z,100.00
2023-02-09T20:20:24.321Z,100.00
2023-02-09T20:22:52.733Z,100.00
2023-02-09T20:25:21.067Z,100.00
2023-02-09T20:27:49.983Z,100.00
2023-02-09T20:30:19.959Z,100.00
2023-02-09T20:32:48.274Z,100.00
2023-02-09T20:35:18.741Z,100.00
2023-02-09T20:37:47.042Z,100.00
2023-02-09T20:40:15.490Z,100.00
2023-02-09T20:43:01.315Z,100.00
2023-02-09T20:45:48.386Z,100.00
2023-02-09T20:48:17.348Z,100.00
2023-02-09T20:50:46.195Z,100.00
2023-02-09T20:53:14.625Z,100.00
2023-02-09T20:55:43.714Z,100.00
2023-02-09T20:58:14.918Z,100.00
2023-02-09T21:00:46.839Z,100.00
2023-02-09T21:03:15.339Z,100.00
2023-02-09T21:05:43.751Z,100.00
2023-02-09T21:08:14.235Z,100.00
2023-02-09T21:10:42.679Z,100.00
2023-02-09T21:13:11.164Z,100.00
2023-02-09T21:15:41.453Z,100.00
2023-02-09T21:18:11.192Z,100.00
2023-02-09T21:20:41.107Z,100.00
2023-02-09T21:23:11.887Z,100.00
2023-02-09T21:25:40.213Z,100.00
2023-02-09T21:28:08.615Z,100.00
2023-02-09T21:30:40.818Z,100.00
2023-02-09T21:33:09.282Z,100.00
2023-02-09T21:35:41.795Z,100.00
2023-02-09T21:38:10.126Z,100.00
2023-02-09T21:40:38.851Z,100.00
2023-02-09T21:43:07.252Z,100.00
2023-02-09T21:45:38.989Z,100.00
2023-02-09T21:48:07.644Z,100.00
2023-02-09T21:50:38.872Z,100.00
2023-02-09T21:53:08.546Z,100.00
2023-02-09T21:55:37.426Z,100.00
2023-02-09T21:58:05.748Z,100.00
2023-02-09T22:02:38.686Z,100.00
2023-02-09T22:05:08.449Z,100.00
2023-02-09T22:07:37.189Z,100.00
2023-02-09T22:10:06.390Z,100.00
2023-02-09T22:12:36.318Z,100.00
2023-02-09T22:15:05.030Z,100.00
2023-02-09T22:17:33.390Z,100.00
2023-02-09T22:20:03.185Z,100.00
2023-02-09T22:22:31.565Z,100.00
2023-02-09T22:24:59.995Z,100.00
2023-02-09T22:27:28.416Z,100.00
2023-02-09T22:29:56.767Z,100.00
2023-02-09T22:32:25.065Z,100.00
2023-02-09T22:34:53.450Z,100.00
2023-02-09T22:37:23.344Z,100.00
2023-02-09T22:39:51.606Z,100.00
2023-02-09T22:42:19.940Z,100.00
2023-02-09T22:44:50.777Z,100.00
2023-02-09T22:47:19.095Z,100.00
2023-02-09T22:49:47.496Z,100.00
2023-02-09T22:52:16.059Z,100.00
2023-02-09T22:54:45.733Z,100.00
2023-02-09T22:57:14.019Z,100.00
2023-02-09T22:59:42.388Z,100.00
2023-02-09T23:02:12.543Z,100.00
2023-02-09T23:04:41.288Z,100.00
2023-02-09T23:07:11.958Z,100.00
2023-02-09T23:09:40.412Z,100.00
2023-02-09T23:12:10.104Z,100.00
2023-02-09T23:14:38.493Z,100.00
2023-02-09T23:17:07.062Z,100.00
2023-02-09T23:19:35.402Z,100.00
2023-02-09T23:22:03.758Z,100.00
2023-02-09T23:24:32.136Z,100.00
2023-02-09T23:27:00.498Z,100.00
2023-02-09T23:29:30.698Z,100.00
2023-02-09T23:31:59.247Z,100.00
2023-02-09T23:34:27.651Z,100.00
2023-02-09T23:36:57.359Z,100.00
2023-02-09T23:39:28.725Z,100.00
2023-02-09T23:41:57.162Z,100.00
2023-02-09T23:44:25.488Z,100.00
2023-02-09T23:46:55.145Z,100.00
2023-02-09T23:49:23.739Z,100.00
2023-02-09T23:51:52.177Z,100.00
2023-02-09T23:54:20.552Z,100.00
2023-02-09T23:56:50.213Z,100.00
2023-02-09T23:59:18.487Z,100.00
